Time;durP1;ratioP1;P1;durP2;ratioP2;P2;SDS_P1;SDS_P2;PMS_P1;PMS_P2;Temp;Humidity;BMP_temperature;BMP_pressure;BME280_temperature;BME280_humidity;BME280_pressure;Samples;Min_cycle;Max_cycle;Signal;HPM_P1;HPM_P2
2022/08/07 00:00:12;;;;;;;4.47;1.30;;;25.30;44.80;;;;;;5044619;28;20049;-46
2022/08/07 00:02:37;;;;;;;3.03;1.40;;;25.30;43.30;;;;;;5043847;28;20394;-49
2022/08/07 00:05:04;;;;;;;3.00;1.40;;;25.20;44.30;;;;;;5044505;28;20020;-48
2022/08/07 00:07:29;;;;;;;2.42;1.48;;;25.20;44.50;;;;;;5042012;28;20063;-48
2022/08/07 00:09:55;;;;;;;2.20;1.10;;;25.20;44.90;;;;;;5042669;28;20645;-51
2022/08/07 00:12:20;;;;;;;1.45;1.00;;;25.20;45.00;;;;;;5042334;28;20746;-47
2022/08/07 00:14:46;;;;;;;2.58;1.02;;;25.20;45.00;;;;;;5040832;28;20705;-49
2022/08/07 00:17:12;;;;;;;2.13;1.30;;;25.20;45.00;;;;;;5043768;28;20029;-48
2022/08/07 00:19:37;;;;;;;2.40;1.25;;;25.20;44.40;;;;;;5044539;28;20080;-45
2022/08/07 00:22:03;;;;;;;2.50;1.33;;;25.20;44.30;;;;;;5044026;28;20025;-49
2022/08/07 00:24:29;;;;;;;2.10;1.20;;;25.20;44.70;;;;;;5044490;28;20021;-49
2022/08/07 00:26:55;;;;;;;3.40;1.38;;;25.20;44.30;;;;;;5041794;28;20029;-48
2022/08/07 00:29:24;;;;;;;2.20;1.00;;;25.20;43.90;;;;;;5042780;28;20083;-48
2022/08/07 00:31:53;;;;;;;2.25;1.40;;;25.20;44.30;;;;;;5042827;28;20029;-48
2022/08/07 00:34:18;;;;;;;2.10;1.20;;;25.20;44.50;;;;;;5044017;28;20085;-46
2022/08/07 00:36:44;;;;;;;3.00;1.40;;;25.10;43.50;;;;;;5043714;28;20112;-49
2022/08/07 00:39:11;;;;;;;1.92;1.10;;;25.10;44.30;;;;;;5043844;28;20036;-49
2022/08/07 00:41:38;;;;;;;2.47;1.10;;;25.10;44.50;;;;;;5042867;28;20040;-48
2022/08/07 00:44:04;;;;;;;2.15;1.00;;;25.10;44.40;;;;;;5043244;28;20025;-46
2022/08/07 00:46:31;;;;;;;2.60;1.05;;;25.10;44.10;;;;;;5042093;28;20032;-46
2022/08/07 00:49:00;;;;;;;2.15;1.23;;;25.10;44.40;;;;;;5042479;28;20579;-46
2022/08/07 00:51:27;;;;;;;2.67;1.15;;;25.10;42.90;;;;;;5043700;28;20132;-46
2022/08/07 00:53:53;;;;;;;2.10;1.20;;;25.00;44.10;;;;;;5043621;28;20025;-49
2022/08/07 00:56:20;;;;;;;1.90;1.02;;;25.10;43.80;;;;;;5040223;28;20037;-46
2022/08/07 00:58:46;;;;;;;2.28;1.23;;;25.00;43.70;;;;;;5043776;28;20398;-46
2022/08/07 01:01:12;;;;;;;2.83;1.20;;;24.90;43.30;;;;;;5043288;28;20028;-46
2022/08/07 01:03:38;;;;;;;2.17;1.13;;;24.80;42.40;;;;;;5041597;28;20187;-46
2022/08/07 01:06:04;;;;;;;2.28;1.13;;;24.70;43.10;;;;;;5042550;28;20100;-46
2022/08/07 01:08:30;;;;;;;3.47;1.10;;;24.70;43.40;;;;;;5043233;28;20099;-47
2022/08/07 01:10:56;;;;;;;2.58;1.00;;;24.70;43.50;;;;;;5042530;28;20057;-46
2022/08/07 01:13:22;;;;;;;3.53;1.23;;;24.70;44.00;;;;;;5043173;28;20489;-46
2022/08/07 01:15:50;;;;;;;2.45;1.38;;;24.70;44.40;;;;;;5041872;28;20024;-46
2022/08/07 01:18:17;;;;;;;2.53;0.90;;;24.70;44.10;;;;;;5042476;28;20620;-46
2022/08/07 01:20:47;;;;;;;2.58;1.13;;;24.70;44.00;;;;;;5042872;28;20028;-46
2022/08/07 01:23:14;;;;;;;2.30;1.00;;;24.70;44.40;;;;;;5024476;28;20056;-45
2022/08/07 01:25:40;;;;;;;3.08;1.20;;;24.70;42.70;;;;;;5042673;28;20096;-47
2022/08/07 01:28:06;;;;;;;2.33;1.00;;;24.60;43.70;;;;;;5040470;28;20088;-46
2022/08/07 01:30:32;;;;;;;1.50;0.90;;;24.50;44.20;;;;;;5043015;28;20123;-46
2022/08/07 01:32:58;;;;;;;2.45;1.02;;;24.50;44.10;;;;;;5041270;28;20029;-46
2022/08/07 01:35:24;;;;;;;2.05;1.10;;;24.50;44.10;;;;;;5042334;28;20025;-46
2022/08/07 01:37:50;;;;;;;2.42;1.10;;;24.50;44.60;;;;;;5042718;28;20738;-46
2022/08/07 01:40:19;;;;;;;2.58;1.30;;;24.50;44.60;;;;;;5042456;28;20614;-46
2022/08/07 01:42:45;;;;;;;2.13;1.20;;;24.50;43.30;;;;;;5042348;28;20033;-46
2022/08/07 01:45:11;;;;;;;2.35;1.30;;;24.50;43.60;;;;;;5040738;28;20108;-46
2022/08/07 01:47:37;;;;;;;3.85;1.48;;;24.40;43.70;;;;;;5041491;28;20142;-46
2022/08/07 01:50:04;;;;;;;2.08;1.10;;;24.40;41.70;;;;;;5042266;28;20021;-45
2022/08/07 01:52:31;;;;;;;2.70;1.00;;;24.30;43.80;;;;;;5041943;28;20028;-46
2022/08/07 01:55:01;;;;;;;2.47;1.52;;;24.20;43.20;;;;;;5041355;28;20562;-46
2022/08/07 01:57:30;;;;;;;2.08;1.00;;;24.20;44.20;;;;;;5040191;28;20489;-46
2022/08/07 02:00:06;;;;;;;2.72;1.42;;;24.20;43.70;;;;;;5042378;28;20396;-46
2022/08/07 02:02:43;;;;;;;2.20;1.20;;;24.10;43.10;;;;;;5040188;28;20066;-46
2022/08/07 02:05:15;;;;;;;2.72;1.23;;;24.00;42.80;;;;;;5039201;28;20040;-45
2022/08/07 02:07:53;;;;;;;3.38;1.50;;;24.00;44.10;;;;;;5038492;28;20055;-46
2022/08/07 02:10:23;;;;;;;2.92;1.35;;;24.00;42.70;;;;;;5040491;28;20025;-47
2022/08/07 02:12:50;;;;;;;2.10;1.10;;;23.90;43.60;;;;;;5039813;28;20060;-46
2022/08/07 02:15:21;;;;;;;2.28;1.00;;;23.90;44.10;;;;;;5040535;28;20017;-46
2022/08/07 02:17:49;;;;;;;1.67;0.85;;;23.90;44.30;;;;;;5041599;28;20056;-46
2022/08/07 02:20:16;;;;;;;3.22;1.20;;;24.00;44.40;;;;;;5042133;28;20017;-46
2022/08/07 02:22:43;;;;;;;2.13;1.13;;;23.90;43.80;;;;;;5042249;28;20021;-46
2022/08/07 02:25:11;;;;;;;2.15;1.10;;;23.90;43.70;;;;;;5041764;28;20032;-46
2022/08/07 02:27:38;;;;;;;2.25;1.00;;;23.90;44.40;;;;;;5041974;28;20029;-46
2022/08/07 02:30:06;;;;;;;2.45;1.15;;;23.90;44.50;;;;;;5042192;28;20025;-46
2022/08/07 02:32:32;;;;;;;2.15;1.13;;;23.90;43.70;;;;;;5040887;28;20097;-46
2022/08/07 02:34:59;;;;;;;2.10;1.10;;;24.00;44.30;;;;;;5041429;28;20385;-46
2022/08/07 02:37:26;;;;;;;2.05;0.93;;;24.00;44.10;;;;;;5041691;28;20044;-46
2022/08/07 02:39:54;;;;;;;2.92;1.27;;;24.00;44.40;;;;;;5041689;28;20032;-46
2022/08/07 02:42:21;;;;;;;2.67;1.23;;;24.00;43.20;;;;;;5039910;28;20025;-46
2022/08/07 02:44:49;;;;;;;2.78;1.25;;;24.00;43.60;;;;;;5041753;28;20428;-46
2022/08/07 02:47:17;;;;;;;2.08;1.00;;;24.00;43.00;;;;;;5041916;28;20079;-46
2022/08/07 02:49:43;;;;;;;2.63;1.25;;;24.00;43.00;;;;;;5041990;28;20652;-46
2022/08/07 02:52:14;;;;;;;1.98;1.10;;;23.90;43.40;;;;;;5039724;28;20124;-46
2022/08/07 02:54:42;;;;;;;2.72;1.00;;;24.00;44.10;;;;;;5039686;28;20364;-46
2022/08/07 02:57:14;;;;;;;2.78;1.00;;;24.00;44.40;;;;;;5039288;28;20128;-46
2022/08/07 02:59:47;;;;;;;2.10;1.08;;;24.00;44.10;;;;;;5041661;28;20051;-47
2022/08/07 03:02:14;;;;;;;2.70;1.40;;;24.00;44.30;;;;;;5040592;28;20025;-45
2022/08/07 03:04:42;;;;;;;2.58;1.13;;;24.10;44.10;;;;;;5041508;28;20516;-46
2022/08/07 03:07:09;;;;;;;2.88;1.38;;;24.10;44.10;;;;;;5040884;28;20021;-49
2022/08/07 03:09:35;;;;;;;4.45;1.60;;;24.10;43.60;;;;;;5041812;28;20063;-49
2022/08/07 03:12:04;;;;;;;2.75;1.42;;;24.10;44.20;;;;;;5041168;28;20056;-47
2022/08/07 03:14:31;;;;;;;1.92;0.90;;;24.10;42.60;;;;;;5041640;28;20681;-47
2022/08/07 03:16:57;;;;;;;2.22;1.10;;;24.10;43.90;;;;;;5040009;28;20040;-48
2022/08/07 03:19:24;;;;;;;2.38;1.20;;;24.10;43.80;;;;;;5042494;28;20097;-49
2022/08/07 03:21:51;;;;;;;2.10;1.10;;;24.10;44.90;;;;;;5045294;28;20090;-47
2022/08/07 03:24:17;;;;;;;2.10;1.10;;;24.10;44.20;;;;;;5043317;28;20028;-48
2022/08/07 03:26:44;;;;;;;2.17;1.10;;;24.20;44.30;;;;;;5040806;28;20025;-49
2022/08/07 03:29:12;;;;;;;1.45;0.88;;;24.20;44.20;;;;;;5025668;28;20712;-48
2022/08/07 03:31:39;;;;;;;2.08;1.00;;;24.20;44.40;;;;;;5026049;28;20060;-46
2022/08/07 03:34:08;;;;;;;1.35;0.82;;;24.20;44.00;;;;;;5026223;28;20029;-47
2022/08/07 03:36:36;;;;;;;2.88;0.98;;;24.20;43.90;;;;;;5025061;28;20072;-48
2022/08/07 03:39:06;;;;;;;2.05;1.02;;;24.20;43.90;;;;;;5036433;28;20056;-48
2022/08/07 03:41:33;;;;;;;2.42;1.17;;;24.20;44.00;;;;;;5041360;28;20025;-49
2022/08/07 03:43:59;;;;;;;1.75;0.98;;;24.30;44.10;;;;;;5045235;28;20051;-49
2022/08/07 03:46:25;;;;;;;1.73;0.95;;;24.20;43.80;;;;;;5043159;28;20025;-47
2022/08/07 03:48:52;;;;;;;4.50;1.10;;;24.30;44.00;;;;;;5045073;28;20587;-49
2022/08/07 03:51:20;;;;;;;2.22;1.17;;;24.30;44.00;;;;;;5044533;28;20025;-47
2022/08/07 03:53:46;;;;;;;1.98;0.90;;;24.30;43.90;;;;;;5042063;28;20068;-48
2022/08/07 03:56:17;;;;;;;2.05;1.00;;;24.40;44.00;;;;;;5043142;28;20021;-48
2022/08/07 03:58:43;;;;;;;2.17;1.13;;;24.40;43.90;;;;;;5042825;28;20040;-49
2022/08/07 04:01:10;;;;;;;1.65;0.95;;;24.40;42.90;;;;;;5044758;28;20025;-47
2022/08/07 04:03:36;;;;;;;1.70;0.90;;;24.30;43.20;;;;;;5043805;28;20025;-48
2022/08/07 04:06:02;;;;;;;3.03;1.15;;;24.30;42.60;;;;;;5043910;28;20567;-48
2022/08/07 04:08:28;;;;;;;2.88;1.20;;;24.30;43.40;;;;;;5043122;28;20017;-48
2022/08/07 04:10:55;;;;;;;2.20;1.02;;;24.30;43.70;;;;;;5041132;28;20721;-48
2022/08/07 04:13:22;;;;;;;2.60;1.20;;;24.30;43.20;;;;;;5042894;28;20124;-47
2022/08/07 04:15:48;;;;;;;1.77;0.95;;;24.30;43.50;;;;;;5042449;28;20516;-47
2022/08/07 04:18:15;;;;;;;2.45;1.15;;;24.30;43.10;;;;;;5043955;28;20024;-50
2022/08/07 04:20:41;;;;;;;2.42;1.00;;;24.30;43.40;;;;;;5043526;28;20515;-48
2022/08/07 04:23:07;;;;;;;1.95;1.10;;;24.40;43.50;;;;;;5041399;28;20017;-47
2022/08/07 04:25:37;;;;;;;1.98;1.00;;;24.40;43.40;;;;;;5042355;28;20043;-48
2022/08/07 04:28:04;;;;;;;2.33;0.98;;;24.40;43.30;;;;;;5042234;28;20025;-48
2022/08/07 04:30:30;;;;;;;2.67;1.10;;;24.40;43.20;;;;;;5042281;28;20489;-49
2022/08/07 04:32:56;;;;;;;2.20;1.13;;;24.40;43.30;;;;;;5044102;28;20043;-49
2022/08/07 04:35:22;;;;;;;2.22;0.90;;;24.40;42.40;;;;;;5043762;28;20017;-49
2022/08/07 04:37:47;;;;;;;1.70;0.88;;;24.40;43.20;;;;;;5044107;28;20646;-49
2022/08/07 04:40:14;;;;;;;2.38;1.08;;;24.40;43.30;;;;;;5044399;28;20021;-47
2022/08/07 04:42:40;;;;;;;3.40;1.23;;;24.50;43.40;;;;;;5041758;28;20036;-48
2022/08/07 04:45:07;;;;;;;2.35;1.00;;;24.50;43.30;;;;;;5042298;28;20021;-47
2022/08/07 04:48:03;;;;;;;2.63;1.20;;;24.50;43.40;;;;;;5043727;28;20056;-48
2022/08/07 04:50:52;;;;;;;2.17;1.00;;;24.50;43.30;;;;;;5043946;28;20024;-47
2022/08/07 04:53:34;;;;;;;2.20;1.10;;;24.50;43.00;;;;;;5041612;28;20070;-47
2022/08/07 04:56:21;;;;;;;3.15;1.02;;;24.50;42.70;;;;;;5042973;28;20055;-49
2022/08/07 04:59:05;;;;;;;2.03;1.00;;;24.50;43.30;;;;;;5042832;28;20104;-48
2022/08/07 05:01:57;;;;;;;1.98;1.00;;;24.60;43.20;;;;;;5042697;28;20557;-46
2022/08/07 05:04:54;;;;;;;2.13;1.13;;;24.50;42.50;;;;;;5041705;28;20078;-48
2022/08/07 05:07:35;;;;;;;2.05;1.00;;;24.50;42.60;;;;;;5042821;28;20032;-48
2022/08/07 05:10:17;;;;;;;2.63;1.27;;;24.50;42.60;;;;;;5042139;28;20100;-49
2022/08/07 05:12:59;;;;;;;1.60;0.93;;;24.40;41.70;;;;;;5042339;28;20057;-48
2022/08/07 05:15:34;;;;;;;2.30;1.20;;;24.30;42.70;;;;;;5042157;28;20037;-48
2022/08/07 05:18:04;;;;;;;2.50;1.08;;;24.30;42.40;;;;;;5042702;28;20024;-49
2022/08/07 05:20:38;;;;;;;2.63;1.10;;;24.30;42.70;;;;;;5042303;28;20555;-47
2022/08/07 05:23:10;;;;;;;2.40;1.10;;;24.30;42.90;;;;;;5040906;28;20021;-48
2022/08/07 05:25:39;;;;;;;2.13;1.20;;;24.30;42.80;;;;;;5042234;28;20021;-47
2022/08/07 05:28:07;;;;;;;2.90;1.33;;;24.30;42.70;;;;;;5041550;28;20029;-47
2022/08/07 05:30:35;;;;;;;2.15;0.93;;;24.30;42.00;;;;;;5042328;28;20017;-46
2022/08/07 05:33:02;;;;;;;2.00;1.02;;;24.20;41.50;;;;;;5043286;28;20373;-49
2022/08/07 05:35:31;;;;;;;2.33;1.10;;;24.20;42.70;;;;;;5042734;28;20021;-47
2022/08/07 05:37:57;;;;;;;1.85;1.08;;;24.20;42.60;;;;;;5041210;28;20516;-47
2022/08/07 05:40:22;;;;;;;2.17;1.00;;;24.20;42.70;;;;;;5042697;28;20056;-48
2022/08/07 05:42:49;;;;;;;2.10;1.20;;;24.20;42.50;;;;;;5040688;28;20908;-48
2022/08/07 05:45:15;;;;;;;1.27;0.80;;;24.20;42.80;;;;;;5041731;28;20086;-47
2022/08/07 05:47:41;;;;;;;2.10;1.00;;;24.30;43.10;;;;;;5041793;28;20040;-50
2022/08/07 05:50:07;;;;;;;2.25;0.90;;;24.30;43.00;;;;;;5042703;28;20505;-49
2022/08/07 05:52:33;;;;;;;2.15;1.10;;;24.30;43.20;;;;;;5040699;28;20024;-48
2022/08/07 05:55:00;;;;;;;2.13;1.13;;;24.30;42.70;;;;;;5042399;28;20032;-49
2022/08/07 05:57:27;;;;;;;2.42;1.10;;;24.30;43.10;;;;;;5041572;28;20060;-47
2022/08/07 05:59:54;;;;;;;3.15;0.90;;;24.30;42.60;;;;;;5042080;28;20174;-46
2022/08/07 06:02:21;;;;;;;2.50;1.17;;;24.30;43.20;;;;;;5037791;28;20127;-49
2022/08/07 06:04:52;;;;;;;4.65;1.20;;;24.30;43.70;;;;;;5041700;28;20029;-49
2022/08/07 06:07:18;;;;;;;2.55;0.95;;;24.30;43.50;;;;;;5040751;28;20155;-48
2022/08/07 06:09:44;;;;;;;2.30;0.98;;;24.30;42.90;;;;;;5041760;28;20112;-48
2022/08/07 06:12:10;;;;;;;2.13;1.00;;;24.30;43.60;;;;;;5041234;28;20052;-49
2022/08/07 06:14:36;;;;;;;2.10;0.90;;;24.30;43.40;;;;;;5042228;28;20052;-49
2022/08/07 06:17:03;;;;;;;1.80;0.90;;;24.30;43.70;;;;;;5042080;28;20115;-50
2022/08/07 06:19:29;;;;;;;2.28;1.17;;;24.40;43.20;;;;;;5042341;28;20017;-48
2022/08/07 06:21:56;;;;;;;1.95;1.00;;;24.30;43.20;;;;;;5042004;28;20033;-51
2022/08/07 06:24:21;;;;;;;3.10;1.15;;;24.40;43.10;;;;;;5042918;28;20100;-46
2022/08/07 06:26:47;;;;;;;2.00;0.85;;;24.40;43.40;;;;;;5039490;28;20108;-47
2022/08/07 06:29:13;;;;;;;2.90;1.00;;;24.40;43.20;;;;;;5022609;28;20106;-48
2022/08/07 06:31:38;;;;;;;3.15;1.52;;;24.40;43.20;;;;;;5022414;28;20033;-48
2022/08/07 06:34:04;;;;;;;2.67;1.27;;;24.40;43.20;;;;;;5022447;28;20079;-49
2022/08/07 06:36:31;;;;;;;3.30;1.30;;;24.40;43.20;;;;;;5021639;28;20025;-49
2022/08/07 06:38:57;;;;;;;2.22;0.98;;;24.40;42.70;;;;;;5031115;28;20025;-48
2022/08/07 06:41:56;;;;;;;3.63;1.30;;;24.40;43.10;;;;;;5030742;28;20032;-49
2022/08/07 06:44:23;;;;;;;2.17;0.77;;;24.40;43.00;;;;;;5031715;28;20032;-48
2022/08/07 06:46:49;;;;;;;2.45;1.30;;;24.40;42.90;;;;;;5026192;28;20037;-48
2022/08/07 06:49:15;;;;;;;1.58;0.90;;;24.40;42.80;;;;;;5035061;28;20029;-50
2022/08/07 06:51:44;;;;;;;1.60;0.85;;;24.40;43.20;;;;;;5042373;28;20107;-48
2022/08/07 06:54:11;;;;;;;2.60;1.05;;;24.40;43.30;;;;;;5035568;28;20107;-49
2022/08/07 06:56:42;;;;;;;2.47;1.05;;;24.40;42.40;;;;;;5045755;28;20087;-49
2022/08/07 06:59:14;;;;;;;2.28;1.00;;;24.30;42.80;;;;;;5026298;28;20048;-45
2022/08/07 07:01:41;;;;;;;2.20;0.90;;;24.30;43.20;;;;;;5043183;28;20067;-47
2022/08/07 07:04:08;;;;;;;2.67;1.20;;;24.30;43.30;;;;;;5036900;28;20123;-46
2022/08/07 07:06:34;;;;;;;2.10;1.00;;;24.30;43.20;;;;;;5044127;28;20021;-46
2022/08/07 07:09:22;;;;;;;2.92;1.00;;;24.30;43.20;;;;;;5044785;28;20112;-46
2022/08/07 07:11:56;;;;;;;2.05;1.10;;;24.40;43.60;;;;;;5043656;28;20049;-46
2022/08/07 07:14:24;;;;;;;4.47;1.67;;;24.40;43.30;;;;;;5041170;28;20033;-47
2022/08/07 07:16:55;;;;;;;4.88;1.90;;;24.40;43.40;;;;;;5042920;28;20025;-46
2022/08/07 07:19:32;;;;;;;3.75;1.20;;;24.40;44.00;;;;;;5043648;28;20036;-47
2022/08/07 07:21:59;;;;;;;4.40;1.63;;;24.40;44.50;;;;;;5045139;28;20032;-46
2022/08/07 07:24:25;;;;;;;3.17;1.02;;;24.50;44.10;;;;;;5045370;28;20550;-47
2022/08/07 07:26:54;;;;;;;2.80;0.95;;;24.50;43.80;;;;;;5042998;28;20405;-47
2022/08/07 07:29:24;;;;;;;2.00;1.10;;;24.50;43.80;;;;;;5025106;28;20030;-47
2022/08/07 07:31:54;;;;;;;2.97;1.25;;;24.50;43.90;;;;;;5025253;28;20116;-48
2022/08/07 07:34:27;;;;;;;2.90;1.30;;;24.50;43.70;;;;;;5042003;28;20096;-47
2022/08/07 07:36:53;;;;;;;2.75;1.13;;;24.50;43.60;;;;;;5040467;28;20104;-46
2022/08/07 07:39:21;;;;;;;2.67;1.13;;;24.50;42.70;;;;;;5026146;28;20036;-47
2022/08/07 07:41:49;;;;;;;1.65;0.98;;;24.50;43.80;;;;;;5044074;28;20103;-47
2022/08/07 07:44:19;;;;;;;2.53;1.30;;;24.50;43.60;;;;;;5043041;28;20021;-48
2022/08/07 07:46:47;;;;;;;3.30;1.02;;;24.40;43.30;;;;;;5042458;28;20025;-47
2022/08/07 07:49:16;;;;;;;3.15;1.40;;;24.50;45.30;;;;;;5043062;28;20053;-46
2022/08/07 07:51:44;;;;;;;2.15;0.90;;;24.50;44.60;;;;;;5043328;28;20028;-48
2022/08/07 07:54:13;;;;;;;2.38;1.20;;;24.50;44.60;;;;;;5044252;28;20029;-47
2022/08/07 07:56:40;;;;;;;1.95;1.10;;;24.50;44.90;;;;;;5044588;28;20048;-45
2022/08/07 07:59:06;;;;;;;3.83;1.50;;;24.50;44.90;;;;;;5024967;28;20030;-48
2022/08/07 08:01:33;;;;;;;2.10;1.25;;;24.50;45.00;;;;;;5024764;28;20087;-47
2022/08/07 08:04:03;;;;;;;3.03;1.40;;;24.60;44.70;;;;;;5043871;28;20029;-47
2022/08/07 08:06:31;;;;;;;2.90;1.17;;;24.50;44.60;;;;;;5043112;28;20021;-48
2022/08/07 08:08:59;;;;;;;3.42;1.30;;;24.50;43.50;;;;;;5038731;28;20507;-48
2022/08/07 08:11:25;;;;;;;4.72;1.52;;;24.40;44.50;;;;;;5044177;28;20029;-47
2022/08/07 08:13:50;;;;;;;2.00;0.98;;;24.40;44.80;;;;;;5042127;28;20482;-48
2022/08/07 08:16:19;;;;;;;3.22;1.20;;;24.40;45.10;;;;;;5043359;28;20036;-47
2022/08/07 08:18:47;;;;;;;2.17;0.95;;;24.40;45.10;;;;;;5044692;28;20108;-48
2022/08/07 08:27:07;;;;;;;2.55;1.05;;;24.50;45.20;;;;;;5027173;28;20071;-48
2022/08/07 08:29:41;;;;;;;2.60;1.20;;;24.50;44.90;;;;;;5024645;28;20033;-48
2022/08/07 08:32:10;;;;;;;3.15;1.10;;;24.50;44.40;;;;;;5041627;28;20173;-49
2022/08/07 08:34:38;;;;;;;2.53;1.23;;;24.60;44.30;;;;;;5044227;28;20029;-48
2022/08/07 08:37:07;;;;;;;2.67;1.27;;;24.50;44.70;;;;;;5044232;28;20032;-48
2022/08/07 08:39:33;;;;;;;2.22;1.05;;;24.50;44.80;;;;;;5043885;28;20052;-47
2022/08/07 08:42:06;;;;;;;2.35;1.08;;;24.50;44.80;;;;;;5042868;28;20059;-48
2022/08/07 08:44:56;;;;;;;1.95;0.93;;;24.50;45.10;;;;;;5024161;28;20029;-47
2022/08/07 08:47:54;;;;;;;2.55;1.20;;;24.60;44.90;;;;;;5023891;28;20633;-47
2022/08/07 08:50:36;;;;;;;2.55;1.10;;;24.60;44.70;;;;;;5023865;28;20105;-47
2022/08/07 08:53:25;;;;;;;3.28;1.25;;;24.60;44.80;;;;;;5024117;28;20049;-48
2022/08/07 08:56:02;;;;;;;3.30;1.20;;;24.60;44.70;;;;;;5023275;28;20025;-48
2022/08/07 08:58:52;;;;;;;2.60;0.80;;;24.60;45.00;;;;;;5023787;28;20544;-47
2022/08/07 09:01:54;;;;;;;2.75;1.13;;;24.60;45.20;;;;;;5041470;28;20669;-46
2022/08/07 09:04:41;;;;;;;2.83;0.90;;;24.60;45.10;;;;;;5042554;28;20033;-45
2022/08/07 09:07:10;;;;;;;2.42;1.33;;;24.60;44.80;;;;;;5042380;28;20048;-45
2022/08/07 09:10:16;;;;;;;2.50;1.15;;;24.60;45.10;;;;;;5042607;28;20043;-45
2022/08/07 09:13:12;;;;;;;2.58;1.48;;;24.60;45.20;;;;;;5041457;28;20051;-47
2022/08/07 09:16:04;;;;;;;2.08;1.08;;;24.60;45.30;;;;;;5034578;28;20112;-46
2022/08/07 09:18:49;;;;;;;2.65;1.25;;;24.60;45.40;;;;;;5039583;28;20033;-46
2022/08/07 09:21:54;;;;;;;2.20;1.17;;;24.70;45.60;;;;;;5039974;28;20025;-45
2022/08/07 09:24:37;;;;;;;1.92;1.05;;;24.70;45.60;;;;;;5039105;28;20119;-46
2022/08/07 09:27:25;;;;;;;2.15;1.10;;;24.70;45.70;;;;;;5040319;28;20605;-48
2022/08/07 09:29:54;;;;;;;2.70;0.90;;;24.70;45.70;;;;;;5042083;28;20116;-47
2022/08/07 09:32:52;;;;;;;3.67;1.30;;;24.70;45.60;;;;;;5042320;28;20025;-47
2022/08/07 09:35:55;;;;;;;2.47;1.20;;;24.80;45.60;;;;;;5040674;28;20033;-48
2022/08/07 09:38:42;;;;;;;2.50;1.10;;;24.80;45.50;;;;;;5041105;28;20029;-46
2022/08/07 09:41:43;;;;;;;3.13;1.30;;;24.80;45.30;;;;;;5040752;28;20056;-47
2022/08/07 09:44:28;;;;;;;3.00;1.70;;;24.80;45.30;;;;;;5039927;28;20612;-47
2022/08/07 09:47:11;;;;;;;4.57;2.08;;;24.80;45.20;;;;;;5040839;28;20017;-48
2022/08/07 09:49:58;;;;;;;4.37;1.97;;;24.80;45.40;;;;;;5040852;28;20020;-48
2022/08/07 09:52:47;;;;;;;3.40;1.73;;;24.80;45.70;;;;;;5038930;28;20032;-49
2022/08/07 09:55:36;;;;;;;2.85;1.48;;;24.80;45.80;;;;;;5041478;28;20037;-48
2022/08/07 09:58:25;;;;;;;4.72;1.42;;;24.90;46.10;;;;;;5032879;28;20445;-49
2022/08/07 10:01:09;;;;;;;4.65;1.88;;;24.90;46.50;;;;;;5022390;28;20582;-48
2022/08/07 10:04:08;;;;;;;2.95;1.20;;;24.90;45.80;;;;;;5022121;28;20087;-50
2022/08/07 10:06:40;;;;;;;4.43;2.10;;;24.90;45.90;;;;;;5034337;28;20032;-48
2022/08/07 10:09:26;;;;;;;4.25;1.92;;;24.90;46.30;;;;;;5041973;28;20029;-49
2022/08/07 10:12:11;;;;;;;3.50;1.77;;;24.90;46.10;;;;;;5020726;28;20033;-49
2022/08/07 10:14:55;;;;;;;3.75;1.60;;;24.90;46.20;;;;;;5021499;28;20095;-47
2022/08/07 10:17:48;;;;;;;4.55;1.50;;;24.90;46.90;;;;;;5029646;28;20029;-46
2022/08/07 10:20:32;;;;;;;;;;;24.90;46.50;;;;;;5041554;28;20029;-47
2022/08/07 10:23:06;;;;;;;2.97;1.35;;;25.00;46.50;;;;;;5040185;28;19913;-48
2022/08/07 10:25:52;;;;;;;4.03;1.27;;;24.90;46.40;;;;;;5041339;28;20096;-46
2022/08/07 10:28:27;;;;;;;3.47;1.30;;;24.90;45.70;;;;;;5033314;28;20030;-48
2022/08/07 10:30:56;;;;;;;3.90;1.77;;;25.00;46.10;;;;;;5030035;28;20036;-48
2022/08/07 10:33:40;;;;;;;2.70;1.10;;;25.00;46.10;;;;;;5038318;28;20052;-49
2022/08/07 10:36:34;;;;;;;3.20;1.30;;;25.00;46.40;;;;;;5041916;28;20116;-49
2022/08/07 10:39:11;;;;;;;2.95;1.48;;;25.00;46.20;;;;;;5046148;28;20470;-49
2022/08/07 10:41:39;;;;;;;3.10;1.20;;;25.00;46.80;;;;;;5045725;28;20036;-49
2022/08/07 10:44:26;;;;;;;2.35;1.25;;;25.00;46.70;;;;;;5029066;28;20433;-50
2022/08/07 10:46:57;;;;;;;3.38;1.52;;;25.00;47.00;;;;;;5024907;28;20063;-48
2022/08/07 10:49:36;;;;;;;3.25;1.45;;;25.10;46.60;;;;;;5026099;28;20033;-48
2022/08/07 10:52:11;;;;;;;3.85;1.63;;;25.00;47.40;;;;;;5042225;28;20029;-51
2022/08/07 10:54:39;;;;;;;1.92;1.00;;;25.10;46.10;;;;;;5039797;28;20100;-48
2022/08/07 10:57:21;;;;;;;2.63;1.40;;;25.10;46.30;;;;;;5044953;28;20025;-50
2022/08/07 10:59:49;;;;;;;3.05;1.27;;;25.10;46.50;;;;;;5044990;28;20064;-49
2022/08/07 11:02:26;;;;;;;2.88;1.40;;;25.10;46.70;;;;;;5044068;28;20613;-49
2022/08/07 11:05:07;;;;;;;3.55;1.33;;;25.10;45.40;;;;;;5044606;28;20032;-48
2022/08/07 11:07:43;;;;;;;2.83;1.50;;;25.10;45.70;;;;;;5044657;28;20029;-48
2022/08/07 11:10:35;;;;;;;9.50;2.13;;;25.10;46.50;;;;;;5044914;28;20060;-47
2022/08/07 11:13:29;;;;;;;11.77;2.90;;;25.10;46.70;;;;;;5038074;28;20029;-47
2022/08/07 11:16:03;;;;;;;3.67;1.95;;;25.10;47.50;;;;;;5019273;28;20047;-48
2022/08/07 11:18:40;;;;;;;5.50;1.45;;;25.20;47.60;;;;;;5025167;28;20091;-46
2022/08/07 11:21:15;;;;;;;2.97;1.52;;;25.20;47.30;;;;;;5024959;28;20207;-47
2022/08/07 11:24:09;;;;;;;4.97;1.60;;;25.20;46.90;;;;;;5042937;28;20120;-47
2022/08/07 11:26:44;;;;;;;2.63;1.38;;;25.30;47.00;;;;;;5041889;28;20064;-49
2022/08/07 11:29:17;;;;;;;3.00;1.25;;;25.30;46.40;;;;;;5041433;28;20036;-48
2022/08/07 11:31:50;;;;;;;3.28;1.48;;;25.30;45.60;;;;;;5043609;28;20108;-49
2022/08/07 11:34:49;;;;;;;2.45;1.20;;;25.30;44.90;;;;;;5026971;28;20108;-48
2022/08/07 11:37:27;;;;;;;3.13;1.25;;;25.30;45.70;;;;;;5044513;28;20029;-46
2022/08/07 11:40:17;;;;;;;2.80;1.30;;;25.30;45.40;;;;;;5044458;28;20742;-48
2022/08/07 11:42:58;;;;;;;2.53;1.30;;;25.40;44.70;;;;;;5040574;28;20025;-45
2022/08/07 11:45:31;;;;;;;1.75;0.93;;;25.40;45.60;;;;;;5023366;28;20033;-46
2022/08/07 11:48:26;;;;;;;3.03;1.27;;;25.40;45.20;;;;;;5023551;28;20107;-46
2022/08/07 11:51:11;;;;;;;3.75;1.08;;;25.40;44.60;;;;;;5024217;28;20118;-46
2022/08/07 11:53:56;;;;;;;4.30;1.77;;;25.40;44.60;;;;;;5024606;28;20060;-46
2022/08/07 11:56:43;;;;;;;3.40;1.42;;;25.40;44.80;;;;;;5024232;28;20013;-46
2022/08/07 11:59:40;;;;;;;2.50;1.10;;;25.40;44.70;;;;;;5023880;28;20060;-47
2022/08/07 12:02:32;;;;;;;2.85;1.17;;;25.40;45.20;;;;;;5024282;28;20025;-47
2022/08/07 12:05:35;;;;;;;3.72;1.15;;;25.40;44.60;;;;;;5027968;28;20025;-46
2022/08/07 12:08:05;;;;;;;;;;;25.40;44.90;;;;;;5041843;28;20029;-46
2022/08/07 12:10:37;;;;;;;2.05;0.90;;;25.40;44.50;;;;;;5042224;28;19951;-47
2022/08/07 12:13:21;;;;;;;2.88;1.40;;;25.40;44.50;;;;;;5041784;28;20035;-48
2022/08/07 12:15:51;;;;;;;2.42;1.35;;;25.40;44.80;;;;;;5041667;28;20741;-46
2022/08/07 12:18:56;;;;;;;4.60;1.35;;;25.40;44.80;;;;;;5041437;28;20029;-46
2022/08/07 12:21:57;;;;;;;3.05;1.20;;;25.40;44.70;;;;;;5042724;28;20090;-46
2022/08/07 12:24:36;;;;;;;2.38;1.17;;;25.50;45.20;;;;;;5043863;28;20108;-46
2022/08/07 12:27:11;;;;;;;3.08;1.20;;;25.40;44.90;;;;;;5044548;28;20107;-46
2022/08/07 12:29:55;;;;;;;2.15;1.10;;;25.50;44.80;;;;;;5025043;28;20025;-46
2022/08/07 12:32:36;;;;;;;2.15;1.00;;;25.50;44.80;;;;;;5024673;28;20033;-45
2022/08/07 12:35:06;;;;;;;1.83;1.08;;;25.40;44.80;;;;;;5023909;28;20029;-46
2022/08/07 12:37:33;;;;;;;2.40;1.30;;;25.50;44.50;;;;;;5024559;28;20044;-49
2022/08/07 12:40:01;;;;;;;1.88;1.00;;;25.50;44.60;;;;;;5024461;28;20346;-46
